sensor_id;sensor_type;location;lat;lon;timestamp;P1;durP1;ratioP1;P2;durP2;ratioP2
13485;SDS011;6815;59.336;17.998;2022-09-14T00:00:50;2.17;;;0.90;;
13485;SDS011;6815;59.336;17.998;2022-09-14T00:03:17;3.17;;;0.93;;
13485;SDS011;6815;59.336;17.998;2022-09-14T00:05:46;4.00;;;1.20;;
13485;SDS011;6815;59.336;17.998;2022-09-14T00:08:13;1.53;;;1.17;;
13485;SDS011;6815;59.336;17.998;2022-09-14T00:10:40;2.77;;;0.80;;
13485;SDS011;6815;59.336;17.998;2022-09-14T00:13:06;2.23;;;1.00;;
13485;SDS011;6815;59.336;17.998;2022-09-14T00:15:36;2.60;;;1.10;;
13485;SDS011;6815;59.336;17.998;2022-09-14T00:18:03;1.70;;;1.10;;
13485;SDS011;6815;59.336;17.998;2022-09-14T00:20:30;2.20;;;0.90;;
13485;SDS011;6815;59.336;17.998;2022-09-14T00:22:56;4.03;;;1.00;;
13485;SDS011;6815;59.336;17.998;2022-09-14T00:25:22;3.00;;;1.10;;
13485;SDS011;6815;59.336;17.998;2022-09-14T00:27:47;1.30;;;0.80;;
13485;SDS011;6815;59.336;17.998;2022-09-14T00:30:15;2.30;;;1.00;;
13485;SDS011;6815;59.336;17.998;2022-09-14T00:32:40;3.20;;;1.00;;
13485;SDS011;6815;59.336;17.998;2022-09-14T00:35:07;1.40;;;0.90;;
13485;SDS011;6815;59.336;17.998;2022-09-14T00:37:32;7.13;;;1.20;;
13485;SDS011;6815;59.336;17.998;2022-09-14T00:39:59;2.27;;;1.00;;
13485;SDS011;6815;59.336;17.998;2022-09-14T00:42:24;2.40;;;1.10;;
13485;SDS011;6815;59.336;17.998;2022-09-14T00:47:16;2.63;;;0.97;;
13485;SDS011;6815;59.336;17.998;2022-09-14T00:49:42;2.13;;;1.17;;
13485;SDS011;6815;59.336;17.998;2022-09-14T00:52:21;4.17;;;1.10;;
13485;SDS011;6815;59.336;17.998;2022-09-14T00:54:50;2.00;;;1.10;;
13485;SDS011;6815;59.336;17.998;2022-09-14T00:57:18;3.67;;;1.20;;
13485;SDS011;6815;59.336;17.998;2022-09-14T00:59:45;3.27;;;1.30;;
13485;SDS011;6815;59.336;17.998;2022-09-14T01:02:15;1.40;;;0.93;;
13485;SDS011;6815;59.336;17.998;2022-09-14T01:04:46;1.27;;;1.00;;
13485;SDS011;6815;59.336;17.998;2022-09-14T01:16:40;4.03;;;1.40;;
13485;SDS011;6815;59.336;17.998;2022-09-14T01:22:15;2.03;;;1.20;;
13485;SDS011;6815;59.336;17.998;2022-09-14T01:24:51;2.07;;;1.30;;
13485;SDS011;6815;59.336;17.998;2022-09-14T01:27:28;3.30;;;1.30;;
13485;SDS011;6815;59.336;17.998;2022-09-14T01:30:08;4.07;;;1.50;;
13485;SDS011;6815;59.336;17.998;2022-09-14T01:32:48;4.80;;;1.30;;
13485;SDS011;6815;59.336;17.998;2022-09-14T01:35:34;2.77;;;1.00;;
13485;SDS011;6815;59.336;17.998;2022-09-14T01:38:30;2.10;;;1.07;;
13485;SDS011;6815;59.336;17.998;2022-09-14T01:41:02;3.07;;;1.10;;
13485;SDS011;6815;59.336;17.998;2022-09-14T01:43:32;3.07;;;1.20;;
13485;SDS011;6815;59.336;17.998;2022-09-14T01:46:23;3.67;;;1.20;;
13485;SDS011;6815;59.336;17.998;2022-09-14T01:48:58;2.83;;;1.00;;
13485;SDS011;6815;59.336;17.998;2022-09-14T01:51:39;1.83;;;1.20;;
13485;SDS011;6815;59.336;17.998;2022-09-14T01:57:07;2.50;;;1.03;;
13485;SDS011;6815;59.336;17.998;2022-09-14T01:59:44;3.53;;;1.10;;
13485;SDS011;6815;59.336;17.998;2022-09-14T02:05:06;3.10;;;1.13;;
13485;SDS011;6815;59.336;17.998;2022-09-14T02:07:35;2.73;;;1.17;;
13485;SDS011;6815;59.336;17.998;2022-09-14T02:10:03;2.70;;;1.13;;
13485;SDS011;6815;59.336;17.998;2022-09-14T02:12:34;4.03;;;1.20;;
13485;SDS011;6815;59.336;17.998;2022-09-14T02:15:02;2.80;;;1.40;;
13485;SDS011;6815;59.336;17.998;2022-09-14T02:17:28;3.50;;;1.17;;
13485;SDS011;6815;59.336;17.998;2022-09-14T02:19:56;4.30;;;1.40;;
13485;SDS011;6815;59.336;17.998;2022-09-14T02:22:25;3.90;;;1.43;;
13485;SDS011;6815;59.336;17.998;2022-09-14T02:24:57;2.50;;;1.30;;
13485;SDS011;6815;59.336;17.998;2022-09-14T02:27:24;3.60;;;1.43;;
13485;SDS011;6815;59.336;17.998;2022-09-14T02:29:50;2.80;;;1.20;;
13485;SDS011;6815;59.336;17.998;2022-09-14T02:38:39;2.47;;;1.30;;
13485;SDS011;6815;59.336;17.998;2022-09-14T02:41:32;2.20;;;1.10;;
13485;SDS011;6815;59.336;17.998;2022-09-14T02:44:26;1.27;;;1.10;;
13485;SDS011;6815;59.336;17.998;2022-09-14T02:47:03;2.87;;;1.20;;
13485;SDS011;6815;59.336;17.998;2022-09-14T02:49:57;4.20;;;1.40;;
13485;SDS011;6815;59.336;17.998;2022-09-14T02:55:25;1.97;;;1.10;;
13485;SDS011;6815;59.336;17.998;2022-09-14T02:58:00;3.30;;;1.33;;
13485;SDS011;6815;59.336;17.998;2022-09-14T03:00:38;2.03;;;1.20;;
13485;SDS011;6815;59.336;17.998;2022-09-14T03:03:09;3.50;;;1.40;;
13485;SDS011;6815;59.336;17.998;2022-09-14T03:05:38;2.17;;;1.13;;
13485;SDS011;6815;59.336;17.998;2022-09-14T03:08:04;1.73;;;1.20;;
13485;SDS011;6815;59.336;17.998;2022-09-14T03:10:30;2.27;;;1.00;;
13485;SDS011;6815;59.336;17.998;2022-09-14T03:12:56;2.00;;;1.10;;
13485;SDS011;6815;59.336;17.998;2022-09-14T03:15:25;2.20;;;0.93;;
13485;SDS011;6815;59.336;17.998;2022-09-14T03:17:51;2.40;;;0.93;;
13485;SDS011;6815;59.336;17.998;2022-09-14T03:20:19;3.27;;;1.10;;
13485;SDS011;6815;59.336;17.998;2022-09-14T03:22:46;1.57;;;0.90;;
13485;SDS011;6815;59.336;17.998;2022-09-14T03:25:12;1.93;;;0.80;;
13485;SDS011;6815;59.336;17.998;2022-09-14T03:27:38;1.80;;;0.60;;
13485;SDS011;6815;59.336;17.998;2022-09-14T03:30:06;0.70;;;0.60;;
13485;SDS011;6815;59.336;17.998;2022-09-14T03:32:34;1.83;;;0.80;;
13485;SDS011;6815;59.336;17.998;2022-09-14T03:34:59;1.17;;;0.70;;
13485;SDS011;6815;59.336;17.998;2022-09-14T03:37:25;2.10;;;0.77;;
13485;SDS011;6815;59.336;17.998;2022-09-14T03:39:51;1.10;;;0.60;;
13485;SDS011;6815;59.336;17.998;2022-09-14T03:42:18;0.80;;;0.50;;
13485;SDS011;6815;59.336;17.998;2022-09-14T03:44:44;1.80;;;0.70;;
13485;SDS011;6815;59.336;17.998;2022-09-14T03:47:11;1.90;;;0.63;;
13485;SDS011;6815;59.336;17.998;2022-09-14T03:49:38;0.37;;;0.30;;
13485;SDS011;6815;59.336;17.998;2022-09-14T03:52:04;1.37;;;0.70;;
13485;SDS011;6815;59.336;17.998;2022-09-14T03:54:29;1.40;;;0.50;;
13485;SDS011;6815;59.336;17.998;2022-09-14T03:56:56;2.70;;;0.60;;
13485;SDS011;6815;59.336;17.998;2022-09-14T03:59:23;0.77;;;0.70;;
13485;SDS011;6815;59.336;17.998;2022-09-14T04:01:48;1.33;;;0.50;;
13485;SDS011;6815;59.336;17.998;2022-09-14T04:04:14;1.20;;;0.60;;
13485;SDS011;6815;59.336;17.998;2022-09-14T04:06:40;2.13;;;0.80;;
13485;SDS011;6815;59.336;17.998;2022-09-14T04:09:07;1.50;;;0.70;;
13485;SDS011;6815;59.336;17.998;2022-09-14T04:11:33;1.23;;;0.80;;
13485;SDS011;6815;59.336;17.998;2022-09-14T04:14:02;2.50;;;0.80;;
13485;SDS011;6815;59.336;17.998;2022-09-14T04:16:29;1.23;;;0.73;;
13485;SDS011;6815;59.336;17.998;2022-09-14T04:18:55;1.10;;;0.60;;
13485;SDS011;6815;59.336;17.998;2022-09-14T04:21:21;0.77;;;0.77;;
13485;SDS011;6815;59.336;17.998;2022-09-14T04:23:50;2.47;;;0.90;;
13485;SDS011;6815;59.336;17.998;2022-09-14T04:26:18;1.03;;;0.80;;
13485;SDS011;6815;59.336;17.998;2022-09-14T04:28:45;1.50;;;0.90;;
13485;SDS011;6815;59.336;17.998;2022-09-14T04:31:13;2.13;;;0.80;;
13485;SDS011;6815;59.336;17.998;2022-09-14T04:33:41;2.20;;;0.90;;
13485;SDS011;6815;59.336;17.998;2022-09-14T04:36:17;2.57;;;1.03;;
13485;SDS011;6815;59.336;17.998;2022-09-14T04:38:44;3.37;;;1.30;;
13485;SDS011;6815;59.336;17.998;2022-09-14T04:41:13;1.40;;;1.07;;
13485;SDS011;6815;59.336;17.998;2022-09-14T04:43:45;2.00;;;1.10;;
13485;SDS011;6815;59.336;17.998;2022-09-14T04:46:17;2.13;;;1.10;;
13485;SDS011;6815;59.336;17.998;2022-09-14T04:48:47;1.47;;;1.00;;
13485;SDS011;6815;59.336;17.998;2022-09-14T04:51:14;1.93;;;0.97;;
13485;SDS011;6815;59.336;17.998;2022-09-14T04:53:42;1.17;;;0.80;;
13485;SDS011;6815;59.336;17.998;2022-09-14T04:56:09;1.37;;;0.90;;
13485;SDS011;6815;59.336;17.998;2022-09-14T04:58:37;3.53;;;1.10;;
13485;SDS011;6815;59.336;17.998;2022-09-14T05:01:04;2.07;;;1.03;;
13485;SDS011;6815;59.336;17.998;2022-09-14T05:03:34;0.73;;;0.70;;
13485;SDS011;6815;59.336;17.998;2022-09-14T05:06:03;1.00;;;0.90;;
13485;SDS011;6815;59.336;17.998;2022-09-14T05:08:31;2.43;;;0.90;;
13485;SDS011;6815;59.336;17.998;2022-09-14T05:10:58;5.00;;;0.97;;
13485;SDS011;6815;59.336;17.998;2022-09-14T05:13:24;1.23;;;0.87;;
13485;SDS011;6815;59.336;17.998;2022-09-14T05:15:52;1.10;;;1.00;;
13485;SDS011;6815;59.336;17.998;2022-09-14T05:18:17;1.70;;;1.10;;
13485;SDS011;6815;59.336;17.998;2022-09-14T05:20:45;0.73;;;0.73;;
13485;SDS011;6815;59.336;17.998;2022-09-14T05:23:11;1.70;;;1.10;;
13485;SDS011;6815;59.336;17.998;2022-09-14T05:25:37;0.93;;;0.90;;
13485;SDS011;6815;59.336;17.998;2022-09-14T05:28:02;1.00;;;0.90;;
13485;SDS011;6815;59.336;17.998;2022-09-14T05:30:29;2.00;;;1.23;;
13485;SDS011;6815;59.336;17.998;2022-09-14T05:32:55;2.63;;;0.77;;
13485;SDS011;6815;59.336;17.998;2022-09-14T05:35:20;1.13;;;0.93;;
13485;SDS011;6815;59.336;17.998;2022-09-14T05:37:46;2.40;;;0.80;;
13485;SDS011;6815;59.336;17.998;2022-09-14T05:40:12;2.20;;;1.00;;
13485;SDS011;6815;59.336;17.998;2022-09-14T05:42:38;1.10;;;1.00;;
13485;SDS011;6815;59.336;17.998;2022-09-14T05:45:04;2.80;;;1.10;;
13485;SDS011;6815;59.336;17.998;2022-09-14T05:47:32;1.50;;;1.10;;
13485;SDS011;6815;59.336;17.998;2022-09-14T05:50:00;1.57;;;0.93;;
13485;SDS011;6815;59.336;17.998;2022-09-14T05:52:27;1.13;;;0.90;;
13485;SDS011;6815;59.336;17.998;2022-09-14T05:54:53;1.10;;;0.93;;
13485;SDS011;6815;59.336;17.998;2022-09-14T05:57:19;1.83;;;1.07;;
13485;SDS011;6815;59.336;17.998;2022-09-14T05:59:45;2.27;;;1.40;;
13485;SDS011;6815;59.336;17.998;2022-09-14T06:02:11;1.67;;;1.23;;
13485;SDS011;6815;59.336;17.998;2022-09-14T06:04:36;1.60;;;1.10;;
13485;SDS011;6815;59.336;17.998;2022-09-14T06:07:02;1.93;;;1.30;;
13485;SDS011;6815;59.336;17.998;2022-09-14T06:09:28;1.40;;;1.00;;
13485;SDS011;6815;59.336;17.998;2022-09-14T06:11:53;1.40;;;1.20;;
13485;SDS011;6815;59.336;17.998;2022-09-14T06:14:19;2.33;;;1.33;;
13485;SDS011;6815;59.336;17.998;2022-09-14T06:16:45;1.57;;;1.00;;
13485;SDS011;6815;59.336;17.998;2022-09-14T06:19:12;2.47;;;1.00;;
13485;SDS011;6815;59.336;17.998;2022-09-14T06:21:39;1.67;;;1.20;;
13485;SDS011;6815;59.336;17.998;2022-09-14T06:24:05;2.13;;;1.30;;
13485;SDS011;6815;59.336;17.998;2022-09-14T06:26:30;1.27;;;0.97;;
13485;SDS011;6815;59.336;17.998;2022-09-14T06:28:56;1.97;;;0.90;;
13485;SDS011;6815;59.336;17.998;2022-09-14T06:31:24;1.00;;;0.90;;
13485;SDS011;6815;59.336;17.998;2022-09-14T06:33:50;1.30;;;1.00;;
13485;SDS011;6815;59.336;17.998;2022-09-14T06:36:17;1.17;;;0.80;;
13485;SDS011;6815;59.336;17.998;2022-09-14T06:38:47;1.13;;;1.00;;
13485;SDS011;6815;59.336;17.998;2022-09-14T06:41:17;1.30;;;1.00;;
13485;SDS011;6815;59.336;17.998;2022-09-14T06:43:45;1.13;;;0.70;;
13485;SDS011;6815;59.336;17.998;2022-09-14T06:48:41;1.20;;;0.90;;
13485;SDS011;6815;59.336;17.998;2022-09-14T06:51:19;0.83;;;0.70;;
13485;SDS011;6815;59.336;17.998;2022-09-14T06:53:50;2.87;;;0.80;;
13485;SDS011;6815;59.336;17.998;2022-09-14T06:56:16;0.97;;;0.73;;
13485;SDS011;6815;59.336;17.998;2022-09-14T06:58:42;0.90;;;0.80;;
13485;SDS011;6815;59.336;17.998;2022-09-14T07:01:12;2.33;;;0.90;;
13485;SDS011;6815;59.336;17.998;2022-09-14T07:03:40;1.40;;;0.90;;
13485;SDS011;6815;59.336;17.998;2022-09-14T07:06:09;1.07;;;0.83;;
13485;SDS011;6815;59.336;17.998;2022-09-14T07:08:37;1.10;;;1.00;;
13485;SDS011;6815;59.336;17.998;2022-09-14T07:11:04;1.47;;;0.77;;
13485;SDS011;6815;59.336;17.998;2022-09-14T07:13:31;0.70;;;0.70;;
13485;SDS011;6815;59.336;17.998;2022-09-14T07:15:57;3.33;;;1.03;;
13485;SDS011;6815;59.336;17.998;2022-09-14T07:18:22;1.70;;;0.80;;
13485;SDS011;6815;59.336;17.998;2022-09-14T07:20:52;1.13;;;0.90;;
13485;SDS011;6815;59.336;17.998;2022-09-14T07:23:17;0.70;;;0.70;;
13485;SDS011;6815;59.336;17.998;2022-09-14T07:25:43;1.67;;;0.73;;
13485;SDS011;6815;59.336;17.998;2022-09-14T07:28:10;1.20;;;0.70;;
13485;SDS011;6815;59.336;17.998;2022-09-14T07:30:36;1.23;;;0.80;;
13485;SDS011;6815;59.336;17.998;2022-09-14T07:33:03;0.60;;;0.60;;
13485;SDS011;6815;59.336;17.998;2022-09-14T07:35:30;1.50;;;0.87;;
13485;SDS011;6815;59.336;17.998;2022-09-14T07:37:56;2.53;;;0.80;;
13485;SDS011;6815;59.336;17.998;2022-09-14T07:40:22;1.20;;;0.57;;
13485;SDS011;6815;59.336;17.998;2022-09-14T07:42:51;0.50;;;0.50;;
13485;SDS011;6815;59.336;17.998;2022-09-14T07:45:18;1.27;;;0.50;;
13485;SDS011;6815;59.336;17.998;2022-09-14T07:47:44;1.23;;;0.70;;
13485;SDS011;6815;59.336;17.998;2022-09-14T07:50:09;0.50;;;0.50;;
13485;SDS011;6815;59.336;17.998;2022-09-14T07:52:35;1.00;;;0.70;;
13485;SDS011;6815;59.336;17.998;2022-09-14T07:55:01;0.70;;;0.70;;
13485;SDS011;6815;59.336;17.998;2022-09-14T07:57:27;0.50;;;0.50;;
13485;SDS011;6815;59.336;17.998;2022-09-14T07:59:53;0.70;;;0.57;;
13485;SDS011;6815;59.336;17.998;2022-09-14T08:02:18;1.43;;;0.80;;
13485;SDS011;6815;59.336;17.998;2022-09-14T08:04:47;1.23;;;0.70;;
13485;SDS011;6815;59.336;17.998;2022-09-14T08:07:12;0.60;;;0.50;;
13485;SDS011;6815;59.336;17.998;2022-09-14T08:09:38;2.33;;;0.80;;
13485;SDS011;6815;59.336;17.998;2022-09-14T08:12:04;0.73;;;0.50;;
13485;SDS011;6815;59.336;17.998;2022-09-14T08:14:29;1.67;;;0.50;;
13485;SDS011;6815;59.336;17.998;2022-09-14T08:16:55;1.63;;;0.70;;
13485;SDS011;6815;59.336;17.998;2022-09-14T08:19:21;1.23;;;0.60;;
13485;SDS011;6815;59.336;17.998;2022-09-14T08:21:46;0.87;;;0.73;;
13485;SDS011;6815;59.336;17.998;2022-09-14T08:24:13;2.07;;;0.60;;
13485;SDS011;6815;59.336;17.998;2022-09-14T08:26:40;0.60;;;0.50;;
13485;SDS011;6815;59.336;17.998;2022-09-14T08:29:06;0.60;;;0.57;;
13485;SDS011;6815;59.336;17.998;2022-09-14T08:31:34;1.33;;;0.50;;
13485;SDS011;6815;59.336;17.998;2022-09-14T08:34:01;0.97;;;0.60;;
13485;SDS011;6815;59.336;17.998;2022-09-14T08:36:32;0.50;;;0.50;;
13485;SDS011;6815;59.336;17.998;2022-09-14T08:38:59;0.70;;;0.60;;
13485;SDS011;6815;59.336;17.998;2022-09-14T08:41:34;1.37;;;0.50;;
13485;SDS011;6815;59.336;17.998;2022-09-14T08:44:11;1.93;;;0.73;;
13485;SDS011;6815;59.336;17.998;2022-09-14T08:52:04;0.60;;;0.60;;
13485;SDS011;6815;59.336;17.998;2022-09-14T08:54:33;1.23;;;0.80;;
13485;SDS011;6815;59.336;17.998;2022-09-14T08:57:08;0.90;;;0.53;;
13485;SDS011;6815;59.336;17.998;2022-09-14T09:00:16;0.60;;;0.60;;
13485;SDS011;6815;59.336;17.998;2022-09-14T09:11:23;3.77;;;1.17;;
13485;SDS011;6815;59.336;17.998;2022-09-14T09:13:53;7.47;;;1.10;;
13485;SDS011;6815;59.336;17.998;2022-09-14T09:16:21;2.67;;;0.77;;
13485;SDS011;6815;59.336;17.998;2022-09-14T09:18:55;3.17;;;1.17;;
13485;SDS011;6815;59.336;17.998;2022-09-14T09:21:34;3.30;;;1.40;;
13485;SDS011;6815;59.336;17.998;2022-09-14T09:24:10;1.40;;;1.20;;
13485;SDS011;6815;59.336;17.998;2022-09-14T09:26:44;1.20;;;1.10;;
13485;SDS011;6815;59.336;17.998;2022-09-14T09:29:12;1.70;;;0.97;;
13485;SDS011;6815;59.336;17.998;2022-09-14T09:31:39;1.23;;;1.13;;
13485;SDS011;6815;59.336;17.998;2022-09-14T09:34:09;3.13;;;0.80;;
13485;SDS011;6815;59.336;17.998;2022-09-14T09:36:38;1.53;;;0.77;;
13485;SDS011;6815;59.336;17.998;2022-09-14T09:39:05;1.77;;;0.87;;
13485;SDS011;6815;59.336;17.998;2022-09-14T09:44:21;2.63;;;1.00;;
13485;SDS011;6815;59.336;17.998;2022-09-14T09:46:48;0.60;;;0.60;;
13485;SDS011;6815;59.336;17.998;2022-09-14T09:49:24;3.67;;;1.00;;
13485;SDS011;6815;59.336;17.998;2022-09-14T09:51:54;0.60;;;0.50;;
13485;SDS011;6815;59.336;17.998;2022-09-14T09:54:25;1.03;;;0.63;;
13485;SDS011;6815;59.336;17.998;2022-09-14T09:56:58;1.67;;;1.00;;
13485;SDS011;6815;59.336;17.998;2022-09-14T10:07:29;0.70;;;0.70;;
13485;SDS011;6815;59.336;17.998;2022-09-14T10:10:15;1.83;;;0.90;;
13485;SDS011;6815;59.336;17.998;2022-09-14T10:12:46;1.07;;;0.80;;
13485;SDS011;6815;59.336;17.998;2022-09-14T10:15:15;1.83;;;0.80;;
13485;SDS011;6815;59.336;17.998;2022-09-14T10:23:28;2.93;;;1.40;;
13485;SDS011;6815;59.336;17.998;2022-09-14T10:28:36;1.00;;;0.90;;
13485;SDS011;6815;59.336;17.998;2022-09-14T10:33:39;2.67;;;0.80;;
13485;SDS011;6815;59.336;17.998;2022-09-14T10:39:18;1.43;;;0.70;;
13485;SDS011;6815;59.336;17.998;2022-09-14T10:41:55;1.33;;;0.80;;
13485;SDS011;6815;59.336;17.998;2022-09-14T10:50:04;1.60;;;0.90;;
13485;SDS011;6815;59.336;17.998;2022-09-14T10:58:24;0.90;;;0.80;;
13485;SDS011;6815;59.336;17.998;2022-09-14T11:06:25;1.70;;;0.83;;
13485;SDS011;6815;59.336;17.998;2022-09-14T11:12:12;2.83;;;0.90;;
13485;SDS011;6815;59.336;17.998;2022-09-14T11:23:44;1.77;;;1.00;;
13485;SDS011;6815;59.336;17.998;2022-09-14T11:26:27;2.33;;;0.90;;
13485;SDS011;6815;59.336;17.998;2022-09-14T11:31:51;1.27;;;0.63;;
13485;SDS011;6815;59.336;17.998;2022-09-14T11:34:38;1.93;;;0.80;;
13485;SDS011;6815;59.336;17.998;2022-09-14T11:37:15;1.40;;;0.90;;
13485;SDS011;6815;59.336;17.998;2022-09-14T11:39:48;1.63;;;1.00;;
13485;SDS011;6815;59.336;17.998;2022-09-14T11:42:49;1.17;;;0.80;;
13485;SDS011;6815;59.336;17.998;2022-09-14T11:48:07;1.47;;;0.80;;
13485;SDS011;6815;59.336;17.998;2022-09-14T11:50:58;1.10;;;0.97;;
13485;SDS011;6815;59.336;17.998;2022-09-14T11:53:31;2.40;;;0.80;;
13485;SDS011;6815;59.336;17.998;2022-09-14T11:55:58;1.37;;;1.03;;
13485;SDS011;6815;59.336;17.998;2022-09-14T11:58:25;1.37;;;0.80;;
13485;SDS011;6815;59.336;17.998;2022-09-14T12:01:55;1.47;;;0.70;;
13485;SDS011;6815;59.336;17.998;2022-09-14T12:11:45;0.75;;;0.68;;
13485;SDS011;6815;59.336;17.998;2022-09-14T12:19:45;1.00;;;0.70;;
13485;SDS011;6815;59.336;17.998;2022-09-14T12:27:38;1.03;;;0.73;;
13485;SDS011;6815;59.336;17.998;2022-09-14T12:35:59;0.80;;;0.80;;
13485;SDS011;6815;59.336;17.998;2022-09-14T12:41:12;0.50;;;0.50;;
13485;SDS011;6815;59.336;17.998;2022-09-14T12:43:50;0.80;;;0.80;;
13485;SDS011;6815;59.336;17.998;2022-09-14T12:53:59;0.70;;;0.70;;
13485;SDS011;6815;59.336;17.998;2022-09-14T12:56:36;3.83;;;0.82;;
13485;SDS011;6815;59.336;17.998;2022-09-14T13:04:31;2.17;;;0.77;;
13485;SDS011;6815;59.336;17.998;2022-09-14T13:07:01;0.70;;;0.70;;
13485;SDS011;6815;59.336;17.998;2022-09-14T13:09:30;0.60;;;0.60;;
13485;SDS011;6815;59.336;17.998;2022-09-14T13:12:04;3.50;;;0.73;;
13485;SDS011;6815;59.336;17.998;2022-09-14T13:17:27;0.97;;;0.63;;
13485;SDS011;6815;59.336;17.998;2022-09-14T13:19:54;0.60;;;0.60;;
13485;SDS011;6815;59.336;17.998;2022-09-14T13:22:25;1.83;;;0.87;;
13485;SDS011;6815;59.336;17.998;2022-09-14T13:24:56;1.23;;;0.80;;
13485;SDS011;6815;59.336;17.998;2022-09-14T13:30:04;1.37;;;0.90;;
13485;SDS011;6815;59.336;17.998;2022-09-14T13:32:45;0.93;;;0.70;;
13485;SDS011;6815;59.336;17.998;2022-09-14T13:35:17;1.63;;;0.70;;
13485;SDS011;6815;59.336;17.998;2022-09-14T13:37:49;0.68;;;0.60;;
13485;SDS011;6815;59.336;17.998;2022-09-14T13:40:14;1.45;;;0.70;;
13485;SDS011;6815;59.336;17.998;2022-09-14T13:42:42;1.33;;;0.60;;
13485;SDS011;6815;59.336;17.998;2022-09-14T13:45:11;1.17;;;0.70;;
13485;SDS011;6815;59.336;17.998;2022-09-14T13:47:37;2.05;;;0.60;;
13485;SDS011;6815;59.336;17.998;2022-09-14T13:50:04;0.60;;;0.60;;
13485;SDS011;6815;59.336;17.998;2022-09-14T13:52:33;0.60;;;0.60;;
13485;SDS011;6815;59.336;17.998;2022-09-14T13:58:03;1.08;;;0.60;;
13485;SDS011;6815;59.336;17.998;2022-09-14T14:00:31;0.50;;;0.50;;
13485;SDS011;6815;59.336;17.998;2022-09-14T14:02:58;0.57;;;0.50;;
13485;SDS011;6815;59.336;17.998;2022-09-14T14:07:52;0.73;;;0.60;;
13485;SDS011;6815;59.336;17.998;2022-09-14T14:10:20;0.80;;;0.60;;
13485;SDS011;6815;59.336;17.998;2022-09-14T14:12:55;0.60;;;0.60;;
13485;SDS011;6815;59.336;17.998;2022-09-14T14:17:47;0.50;;;0.50;;
13485;SDS011;6815;59.336;17.998;2022-09-14T14:25:34;1.37;;;0.50;;
13485;SDS011;6815;59.336;17.998;2022-09-14T14:28:03;0.73;;;0.57;;
13485;SDS011;6815;59.336;17.998;2022-09-14T14:30:32;0.50;;;0.50;;
13485;SDS011;6815;59.336;17.998;2022-09-14T14:33:01;1.00;;;0.67;;
13485;SDS011;6815;59.336;17.998;2022-09-14T14:35:28;1.10;;;0.60;;
13485;SDS011;6815;59.336;17.998;2022-09-14T14:37:55;0.60;;;0.60;;
13485;SDS011;6815;59.336;17.998;2022-09-14T14:40:21;0.75;;;0.47;;
13485;SDS011;6815;59.336;17.998;2022-09-14T14:42:48;2.15;;;0.60;;
13485;SDS011;6815;59.336;17.998;2022-09-14T14:45:19;1.20;;;0.60;;
13485;SDS011;6815;59.336;17.998;2022-09-14T14:47:52;1.77;;;1.00;;
13485;SDS011;6815;59.336;17.998;2022-09-14T14:50:21;1.27;;;0.60;;
13485;SDS011;6815;59.336;17.998;2022-09-14T14:52:50;0.60;;;0.60;;
13485;SDS011;6815;59.336;17.998;2022-09-14T14:55:16;0.57;;;0.53;;
13485;SDS011;6815;59.336;17.998;2022-09-14T14:57:43;0.70;;;0.60;;
13485;SDS011;6815;59.336;17.998;2022-09-14T15:00:13;0.47;;;0.47;;
13485;SDS011;6815;59.336;17.998;2022-09-14T15:02:41;0.60;;;0.60;;
13485;SDS011;6815;59.336;17.998;2022-09-14T15:05:08;0.68;;;0.68;;
13485;SDS011;6815;59.336;17.998;2022-09-14T15:07:35;1.85;;;0.80;;
13485;SDS011;6815;59.336;17.998;2022-09-14T15:10:00;0.80;;;0.70;;
13485;SDS011;6815;59.336;17.998;2022-09-14T15:12:27;1.17;;;0.60;;
13485;SDS011;6815;59.336;17.998;2022-09-14T15:14:54;0.77;;;0.77;;
13485;SDS011;6815;59.336;17.998;2022-09-14T15:17:21;1.35;;;0.70;;
13485;SDS011;6815;59.336;17.998;2022-09-14T15:19:46;1.20;;;0.80;;
13485;SDS011;6815;59.336;17.998;2022-09-14T15:22:12;1.58;;;0.90;;
13485;SDS011;6815;59.336;17.998;2022-09-14T15:24:38;2.92;;;0.90;;
13485;SDS011;6815;59.336;17.998;2022-09-14T15:27:03;1.35;;;0.95;;
13485;SDS011;6815;59.336;17.998;2022-09-14T15:29:29;1.40;;;0.90;;
13485;SDS011;6815;59.336;17.998;2022-09-14T15:31:55;2.70;;;0.98;;
13485;SDS011;6815;59.336;17.998;2022-09-14T15:34:20;1.37;;;1.10;;
13485;SDS011;6815;59.336;17.998;2022-09-14T15:36:48;1.67;;;0.88;;
13485;SDS011;6815;59.336;17.998;2022-09-14T15:39:16;1.95;;;0.85;;
13485;SDS011;6815;59.336;17.998;2022-09-14T15:41:43;1.63;;;0.98;;
13485;SDS011;6815;59.336;17.998;2022-09-14T15:44:09;1.30;;;0.75;;
13485;SDS011;6815;59.336;17.998;2022-09-14T15:46:36;1.23;;;0.95;;
13485;SDS011;6815;59.336;17.998;2022-09-14T15:49:04;1.00;;;0.60;;
13485;SDS011;6815;59.336;17.998;2022-09-14T15:51:31;2.45;;;0.85;;
13485;SDS011;6815;59.336;17.998;2022-09-14T15:53:58;1.52;;;0.90;;
13485;SDS011;6815;59.336;17.998;2022-09-14T15:56:24;0.98;;;0.88;;
13485;SDS011;6815;59.336;17.998;2022-09-14T15:58:50;1.10;;;0.90;;
13485;SDS011;6815;59.336;17.998;2022-09-14T16:01:16;1.00;;;0.90;;
13485;SDS011;6815;59.336;17.998;2022-09-14T16:03:43;1.05;;;0.82;;
13485;SDS011;6815;59.336;17.998;2022-09-14T16:06:10;1.85;;;0.80;;
13485;SDS011;6815;59.336;17.998;2022-09-14T16:08:36;1.27;;;0.70;;
13485;SDS011;6815;59.336;17.998;2022-09-14T16:11:04;0.97;;;0.77;;
13485;SDS011;6815;59.336;17.998;2022-09-14T16:13:31;1.60;;;1.10;;
13485;SDS011;6815;59.336;17.998;2022-09-14T16:16:01;1.42;;;1.00;;
13485;SDS011;6815;59.336;17.998;2022-09-14T16:18:32;1.23;;;0.63;;
13485;SDS011;6815;59.336;17.998;2022-09-14T16:21:06;3.15;;;0.90;;
13485;SDS011;6815;59.336;17.998;2022-09-14T16:23:35;1.30;;;0.73;;
13485;SDS011;6815;59.336;17.998;2022-09-14T16:26:06;1.25;;;0.80;;
13485;SDS011;6815;59.336;17.998;2022-09-14T16:28:38;0.90;;;0.70;;
13485;SDS011;6815;59.336;17.998;2022-09-14T16:31:06;1.25;;;0.73;;
13485;SDS011;6815;59.336;17.998;2022-09-14T16:33:38;3.17;;;0.80;;
13485;SDS011;6815;59.336;17.998;2022-09-14T16:36:07;2.10;;;0.80;;
13485;SDS011;6815;59.336;17.998;2022-09-14T16:38:35;1.92;;;0.82;;
13485;SDS011;6815;59.336;17.998;2022-09-14T16:41:01;1.10;;;0.77;;
13485;SDS011;6815;59.336;17.998;2022-09-14T16:43:27;1.05;;;0.73;;
13485;SDS011;6815;59.336;17.998;2022-09-14T17:01:05;1.42;;;0.93;;
13485;SDS011;6815;59.336;17.998;2022-09-14T17:03:37;0.95;;;0.80;;
13485;SDS011;6815;59.336;17.998;2022-09-14T17:06:03;1.00;;;0.85;;
13485;SDS011;6815;59.336;17.998;2022-09-14T17:08:31;1.33;;;0.80;;
13485;SDS011;6815;59.336;17.998;2022-09-14T17:10:58;0.60;;;0.57;;
13485;SDS011;6815;59.336;17.998;2022-09-14T17:13:25;1.07;;;0.60;;
13485;SDS011;6815;59.336;17.998;2022-09-14T17:16:00;1.00;;;0.60;;
13485;SDS011;6815;59.336;17.998;2022-09-14T17:18:28;0.60;;;0.57;;
13485;SDS011;6815;59.336;17.998;2022-09-14T17:21:01;0.50;;;0.50;;
13485;SDS011;6815;59.336;17.998;2022-09-14T17:23:32;0.40;;;0.40;;
13485;SDS011;6815;59.336;17.998;2022-09-14T17:26:01;0.53;;;0.53;;
13485;SDS011;6815;59.336;17.998;2022-09-14T17:28:29;1.83;;;1.03;;
13485;SDS011;6815;59.336;17.998;2022-09-14T17:30:58;1.50;;;1.20;;
13485;SDS011;6815;59.336;17.998;2022-09-14T17:33:25;1.43;;;1.10;;
13485;SDS011;6815;59.336;17.998;2022-09-14T17:35:54;3.20;;;1.20;;
13485;SDS011;6815;59.336;17.998;2022-09-14T17:38:23;1.07;;;0.87;;
13485;SDS011;6815;59.336;17.998;2022-09-14T17:40:49;2.60;;;0.87;;
13485;SDS011;6815;59.336;17.998;2022-09-14T17:43:17;2.83;;;0.77;;
13485;SDS011;6815;59.336;17.998;2022-09-14T17:45:52;1.17;;;1.00;;
13485;SDS011;6815;59.336;17.998;2022-09-14T17:48:19;2.90;;;1.20;;
13485;SDS011;6815;59.336;17.998;2022-09-14T17:50:46;0.97;;;0.60;;
13485;SDS011;6815;59.336;17.998;2022-09-14T17:53:12;0.73;;;0.70;;
13485;SDS011;6815;59.336;17.998;2022-09-14T17:55:37;1.83;;;1.13;;
13485;SDS011;6815;59.336;17.998;2022-09-14T17:58:03;3.10;;;1.20;;
13485;SDS011;6815;59.336;17.998;2022-09-14T18:00:29;2.30;;;1.00;;